createdAt,value
2018-10-03T00:00:25.763Z,77.81
2018-10-03T00:02:54.085Z,78.19
2018-10-03T00:05:22.417Z,77.53
2018-10-03T00:07:50.741Z,77.32
2018-10-03T00:10:19.102Z,77.85
2018-10-03T00:12:47.491Z,78.32
2018-10-03T00:15:15.815Z,78.86
2018-10-03T00:17:44.123Z,78.79
2018-10-03T00:20:12.770Z,78.36
2018-10-03T00:22:41.083Z,78.46
2018-10-03T00:25:09.528Z,77.45
2018-10-03T00:27:37.841Z,78.09
2018-10-03T00:30:06.450Z,78.46
2018-10-03T00:32:34.743Z,78.50
2018-10-03T00:35:03.130Z,78.63
2018-10-03T00:37:31.404Z,78.58
2018-10-03T00:39:59.869Z,78.20
2018-10-03T00:42:28.176Z,78.04
2018-10-03T00:44:56.513Z,77.93
2018-10-03T00:47:24.831Z,76.99
2018-10-03T00:49:53.264Z,77.70
2018-10-03T00:52:21.671Z,76.11
2018-10-03T00:54:50.803Z,76.69
2018-10-03T00:57:19.096Z,76.71
2018-10-03T00:59:47.395Z,77.36
2018-10-03T01:02:15.760Z,77.44
2018-10-03T01:04:44.047Z,76.82
2018-10-03T01:07:12.355Z,76.95
2018-10-03T01:09:40.676Z,76.24
2018-10-03T01:12:09.022Z,76.98
2018-10-03T01:14:38.168Z,76.91
2018-10-03T01:17:06.694Z,77.03
2018-10-03T01:19:35.422Z,77.15
2018-10-03T01:22:03.757Z,76.46
2018-10-03T01:24:32.340Z,75.24
2018-10-03T01:27:00.655Z,75.86
2018-10-03T01:29:29.022Z,75.52
2018-10-03T01:31:57.382Z,76.04
2018-10-03T01:34:25.667Z,75.66
2018-10-03T01:36:53.992Z,75.15
2018-10-03T01:39:22.420Z,75.58
2018-10-03T01:41:50.811Z,75.51
2018-10-03T01:44:19.200Z,76.10
2018-10-03T01:46:47.508Z,76.28
2018-10-03T01:49:15.812Z,76.74
2018-10-03T01:51:44.133Z,76.49
2018-10-03T01:54:12.467Z,76.25
2018-10-03T01:56:40.827Z,76.23
2018-10-03T01:59:12.111Z,75.85
2018-10-03T02:01:40.435Z,75.62
2018-10-03T02:04:08.736Z,75.98
2018-10-03T02:06:37.283Z,76.25
2018-10-03T02:09:06.988Z,76.54
2018-10-03T02:11:35.359Z,76.06
2018-10-03T02:14:03.649Z,76.58
2018-10-03T02:16:31.984Z,76.17
2018-10-03T02:19:00.322Z,75.42
2018-10-03T02:21:28.659Z,75.71
2018-10-03T02:23:56.972Z,75.47
2018-10-03T02:26:25.306Z,75.02
2018-10-03T02:28:53.599Z,74.38
2018-10-03T02:31:21.906Z,74.54
2018-10-03T02:33:50.208Z,74.17
2018-10-03T02:36:18.521Z,74.27
2018-10-03T02:38:46.826Z,74.56
2018-10-03T02:41:15.155Z,74.44
2018-10-03T02:43:43.488Z,74.27
2018-10-03T02:46:11.785Z,74.56
2018-10-03T02:48:40.140Z,73.40
2018-10-03T02:51:08.458Z,73.97
2018-10-03T02:53:36.786Z,74.60
2018-10-03T02:56:05.072Z,74.50
2018-10-03T02:58:33.410Z,74.45
2018-10-03T03:01:01.815Z,74.50
2018-10-03T03:03:30.200Z,74.01
2018-10-03T03:05:58.568Z,74.77
2018-10-03T03:08:26.965Z,75.13
2018-10-03T03:10:55.297Z,75.86
2018-10-03T03:13:23.666Z,75.98
2018-10-03T03:15:52.026Z,76.06
2018-10-03T03:18:20.407Z,76.72
2018-10-03T03:20:48.764Z,76.93
2018-10-03T03:23:17.137Z,76.59
2018-10-03T03:25:45.525Z,76.71
2018-10-03T03:28:13.919Z,77.47
2018-10-03T03:30:42.273Z,77.00
2018-10-03T03:33:10.623Z,76.36
2018-10-03T03:35:39.128Z,76.64
2018-10-03T03:38:07.627Z,76.49
2018-10-03T03:40:36.098Z,77.32
2018-10-03T03:43:04.528Z,77.17
2018-10-03T03:45:32.881Z,77.64
2018-10-03T03:48:01.297Z,77.29
2018-10-03T03:50:30.145Z,77.86
2018-10-03T03:52:58.552Z,77.67
2018-10-03T03:55:26.878Z,77.85
2018-10-03T03:57:55.322Z,77.93
2018-10-03T04:00:23.821Z,77.48
2018-10-03T04:02:52.185Z,77.77
2018-10-03T04:05:20.537Z,78.24
2018-10-03T04:07:48.913Z,77.69
2018-10-03T04:10:17.252Z,78.46
2018-10-03T04:12:45.624Z,77.95
2018-10-03T04:15:14.023Z,78.41
2018-10-03T04:17:42.403Z,78.07
2018-10-03T04:20:10.809Z,77.88
2018-10-03T04:22:39.212Z,78.27
2018-10-03T04:25:07.617Z,78.40
2018-10-03T04:27:36.038Z,77.80
2018-10-03T04:30:04.438Z,78.38
2018-10-03T04:32:32.824Z,78.50
2018-10-03T04:35:01.160Z,78.26
2018-10-03T04:37:29.568Z,78.04
2018-10-03T04:39:57.942Z,78.39
2018-10-03T04:42:26.297Z,78.96
2018-10-03T04:44:54.838Z,78.44
2018-10-03T04:47:23.233Z,78.47
2018-10-03T04:49:51.708Z,78.67
2018-10-03T04:52:20.134Z,78.13
2018-10-03T04:54:57.469Z,78.51
2018-10-03T04:57:26.626Z,78.37
2018-10-03T04:59:55.014Z,78.66
2018-10-03T05:02:23.368Z,78.43
2018-10-03T05:04:51.797Z,79.04
2018-10-03T05:07:20.309Z,78.82
2018-10-03T05:09:48.728Z,79.18
2018-10-03T05:12:17.104Z,79.11
2018-10-03T05:14:45.595Z,78.91
2018-10-03T05:17:14.270Z,79.16
2018-10-03T05:19:42.682Z,79.77
2018-10-03T05:22:11.122Z,79.72
2018-10-03T05:24:39.522Z,79.71
2018-10-03T05:27:07.981Z,80.21
2018-10-03T05:29:36.568Z,79.79
2018-10-03T05:32:04.959Z,80.29
2018-10-03T05:34:33.437Z,79.68
2018-10-03T05:37:01.914Z,79.63
2018-10-03T05:39:30.364Z,79.65
2018-10-03T05:41:58.798Z,79.36
2018-10-03T05:44:27.252Z,79.09
2018-10-03T05:46:55.666Z,78.96
2018-10-03T05:49:24.109Z,79.40
2018-10-03T05:51:52.470Z,79.28
2018-10-03T05:54:20.853Z,79.04
2018-10-03T05:56:49.275Z,79.38
2018-10-03T05:59:17.694Z,79.33
2018-10-03T06:01:46.241Z,79.96
2018-10-03T06:04:15.070Z,79.54
2018-10-03T06:06:43.573Z,79.57
2018-10-03T06:09:12.993Z,79.32
2018-10-03T06:11:42.441Z,78.55
2018-10-03T06:14:11.155Z,78.70
2018-10-03T06:16:39.519Z,78.19
2018-10-03T06:19:07.884Z,78.15
2018-10-03T06:21:36.743Z,78.32
2018-10-03T06:24:05.204Z,77.81
2018-10-03T06:26:33.725Z,78.00
2018-10-03T06:29:02.782Z,78.05
2018-10-03T06:31:31.148Z,78.56
2018-10-03T06:33:59.605Z,78.07
2018-10-03T06:36:28.068Z,77.88
2018-10-03T06:38:56.526Z,77.69
2018-10-03T06:41:25.129Z,77.46
2018-10-03T06:43:53.533Z,77.21
2018-10-03T06:46:21.903Z,77.80
2018-10-03T06:48:50.309Z,77.39
2018-10-03T06:51:18.749Z,77.43
2018-10-03T06:53:47.125Z,77.14
2018-10-03T06:56:15.488Z,77.03
2018-10-03T06:58:43.850Z,76.75
2018-10-03T07:01:12.231Z,77.15
2018-10-03T07:03:40.596Z,76.18
2018-10-03T07:06:09.024Z,75.80
2018-10-03T07:08:37.438Z,75.32
2018-10-03T07:11:05.996Z,75.17
2018-10-03T07:13:34.333Z,75.49
2018-10-03T07:16:02.811Z,74.72
2018-10-03T07:18:31.194Z,74.64
2018-10-03T07:20:59.604Z,74.92
2018-10-03T07:23:28.015Z,74.86
2018-10-03T07:25:56.447Z,74.13
2018-10-03T07:28:24.832Z,73.87
2018-10-03T07:30:53.333Z,73.98
2018-10-03T07:33:21.912Z,74.75
2018-10-03T07:35:50.320Z,75.00
2018-10-03T07:38:18.690Z,75.31
2018-10-03T07:40:47.100Z,75.37
2018-10-03T07:43:15.478Z,74.42
2018-10-03T07:45:43.981Z,74.91
2018-10-03T07:48:12.472Z,73.65
2018-10-03T07:50:40.865Z,73.98
2018-10-03T07:53:09.218Z,73.92
2018-10-03T07:55:37.608Z,73.98
2018-10-03T07:58:06.303Z,73.72
2018-10-03T08:00:34.695Z,73.20
2018-10-03T08:03:03.094Z,72.25
2018-10-03T08:05:31.814Z,72.91
2018-10-03T08:08:00.461Z,72.32
2018-10-03T08:10:28.935Z,71.65
2018-10-03T08:12:57.790Z,71.59
2018-10-03T08:15:26.335Z,71.57
2018-10-03T08:17:54.665Z,71.04
2018-10-03T08:20:23.115Z,71.17
2018-10-03T08:22:51.565Z,70.51
2018-10-03T08:25:19.937Z,69.83
2018-10-03T08:27:49.581Z,68.69
2018-10-03T08:30:18.143Z,69.15
2018-10-03T08:32:46.692Z,67.74
2018-10-03T08:35:15.004Z,69.04
2018-10-03T08:37:43.361Z,68.97
2018-10-03T08:40:11.808Z,68.32
2018-10-03T08:42:40.214Z,67.54
2018-10-03T08:45:08.917Z,68.58
2018-10-03T08:47:38.136Z,66.88
2018-10-03T08:50:08.860Z,66.35
2018-10-03T08:52:37.728Z,65.61
2018-10-03T08:55:06.510Z,66.36
2018-10-03T08:57:35.484Z,65.34
2018-10-03T09:00:10.309Z,66.29
2018-10-03T09:02:38.972Z,66.12
2018-10-03T09:05:07.896Z,64.90
2018-10-03T09:07:36.538Z,65.93
2018-10-03T09:10:05.159Z,64.55
2018-10-03T09:12:33.503Z,65.05
2018-10-03T09:15:01.871Z,63.42
2018-10-03T09:17:30.206Z,62.57
2018-10-03T09:19:58.687Z,62.00
2018-10-03T09:22:27.061Z,62.32
2018-10-03T09:24:55.497Z,60.69
2018-10-03T09:27:24.005Z,61.66
2018-10-03T09:29:52.351Z,60.97
2018-10-03T09:32:20.732Z,61.91
2018-10-03T09:34:49.238Z,62.23
2018-10-03T09:37:17.718Z,60.27
2018-10-03T09:39:46.092Z,58.60
2018-10-03T09:42:14.511Z,59.74
2018-10-03T09:44:42.846Z,60.63
2018-10-03T09:47:11.462Z,60.40
2018-10-03T09:49:39.790Z,59.68
2018-10-03T09:52:08.167Z,59.52
2018-10-03T09:54:36.452Z,59.62
2018-10-03T09:57:04.799Z,60.59
2018-10-03T09:59:33.098Z,59.73
2018-10-03T10:02:01.522Z,59.93
2018-10-03T10:04:29.917Z,59.13
2018-10-03T10:06:58.472Z,59.27
2018-10-03T10:09:26.944Z,59.21
2018-10-03T10:11:55.434Z,59.16
2018-10-03T10:14:23.777Z,59.40
2018-10-03T10:16:52.151Z,60.27
2018-10-03T10:19:22.005Z,58.61
2018-10-03T10:21:50.503Z,57.89
2018-10-03T10:24:18.893Z,58.08
2018-10-03T10:26:47.285Z,58.16
2018-10-03T10:29:15.707Z,58.66
2018-10-03T10:31:44.265Z,56.55
2018-10-03T10:34:12.973Z,56.92
2018-10-03T10:36:41.351Z,57.71
2018-10-03T10:39:11.023Z,57.34
2018-10-03T10:41:39.582Z,57.13
2018-10-03T10:44:08.047Z,57.91
2018-10-03T10:46:36.835Z,58.62
2018-10-03T10:49:05.244Z,59.28
2018-10-03T10:51:33.837Z,57.90
2018-10-03T10:54:02.344Z,57.17
2018-10-03T10:56:31.267Z,56.97
2018-10-03T10:59:00.162Z,57.83
2018-10-03T11:01:28.689Z,58.21
2018-10-03T11:03:57.332Z,58.01
2018-10-03T11:06:25.985Z,58.81
2018-10-03T11:08:55.421Z,59.37
2018-10-03T11:11:25.470Z,58.76
2018-10-03T11:13:53.992Z,58.25
2018-10-03T11:16:22.587Z,58.00
2018-10-03T11:18:51.124Z,57.85
2018-10-03T11:21:19.585Z,58.42
2018-10-03T11:23:49.630Z,58.11
2018-10-03T11:26:18.362Z,57.95
2018-10-03T11:28:47.183Z,56.84
2018-10-03T11:31:15.729Z,56.56
2018-10-03T11:33:44.432Z,57.88
2018-10-03T11:36:13.240Z,56.37
2018-10-03T11:38:42.767Z,57.52
2018-10-03T11:41:13.554Z,58.36
2018-10-03T11:43:42.121Z,58.06
2018-10-03T11:46:11.151Z,58.64
2018-10-03T11:48:39.732Z,59.32
2018-10-03T11:51:09.433Z,58.98
2018-10-03T11:53:38.119Z,58.95
2018-10-03T11:56:06.660Z,57.96
2018-10-03T11:58:35.174Z,58.56
2018-10-03T12:01:03.866Z,58.85
2018-10-03T12:03:32.544Z,58.45
2018-10-03T12:06:00.966Z,58.49
2018-10-03T12:08:29.779Z,57.92
2018-10-03T12:10:58.260Z,58.51
2018-10-03T12:13:27.559Z,58.59
2018-10-03T12:15:56.039Z,57.15
2018-10-03T12:18:24.691Z,58.17
2018-10-03T12:20:53.140Z,57.98
2018-10-03T12:23:21.590Z,57.78
2018-10-03T12:25:50.891Z,57.42
2018-10-03T12:28:19.309Z,56.37
2018-10-03T12:30:47.650Z,55.80
2018-10-03T12:33:16.186Z,55.87
2018-10-03T12:35:44.598Z,56.86
2018-10-03T12:38:12.994Z,57.26
2018-10-03T12:40:53.507Z,57.73
2018-10-03T12:43:21.970Z,55.66
2018-10-03T12:45:50.334Z,57.64
2018-10-03T12:48:18.897Z,56.68
2018-10-03T12:50:47.280Z,55.89
2018-10-03T12:53:15.731Z,54.88
2018-10-03T12:55:44.222Z,56.04
2018-10-03T12:58:12.574Z,54.72
2018-10-03T13:00:41.161Z,54.50
2018-10-03T13:03:09.670Z,53.61
2018-10-03T13:05:38.083Z,53.44
2018-10-03T13:08:14.238Z,53.35
2018-10-03T13:10:42.670Z,53.80
2018-10-03T13:13:11.010Z,54.03
2018-10-03T13:15:39.487Z,53.05
2018-10-03T13:18:07.907Z,53.87
2018-10-03T13:20:37.567Z,52.80
2018-10-03T13:23:06.124Z,53.44
2018-10-03T13:25:34.528Z,53.90
2018-10-03T13:28:02.995Z,53.28
2018-10-03T13:30:31.365Z,53.96
2018-10-03T13:33:00.166Z,54.32
2018-10-03T13:35:28.608Z,52.57
2018-10-03T13:37:57.147Z,52.25
2018-10-03T13:40:25.603Z,52.65
2018-10-03T13:42:53.971Z,52.61
2018-10-03T13:45:22.407Z,53.06
2018-10-03T13:47:53.566Z,52.94
2018-10-03T13:50:21.956Z,54.14
2018-10-03T13:52:50.298Z,53.42
2018-10-03T13:55:18.767Z,52.72
2018-10-03T13:57:47.154Z,52.89
2018-10-03T14:00:15.643Z,53.69
2018-10-03T14:02:44.032Z,53.05
2018-10-03T14:05:12.718Z,52.55
2018-10-03T14:07:41.446Z,53.45
2018-10-03T14:10:16.685Z,53.70
2018-10-03T14:15:21.344Z,53.48
2018-10-03T14:17:49.811Z,53.71
2018-10-03T14:20:18.226Z,53.34
2018-10-03T14:22:46.635Z,54.43
2018-10-03T14:25:15.028Z,53.88
2018-10-03T14:27:43.523Z,52.76
2018-10-03T14:30:14.627Z,53.96
2018-10-03T14:32:43.184Z,54.17
2018-10-03T14:35:18.758Z,54.20
2018-10-03T14:37:52.045Z,54.72
2018-10-03T14:40:20.485Z,54.41
2018-10-03T14:42:55.065Z,54.03
2018-10-03T14:45:23.455Z,54.50
2018-10-03T14:47:51.836Z,55.25
2018-10-03T14:50:21.489Z,53.96
2018-10-03T14:52:49.966Z,55.96
2018-10-03T14:55:18.314Z,55.59
2018-10-03T14:57:46.775Z,55.81
2018-10-03T15:00:16.967Z,56.65
2018-10-03T15:02:45.487Z,55.80
2018-10-03T15:05:13.859Z,55.04
2018-10-03T15:07:42.290Z,55.03
2018-10-03T15:10:10.807Z,56.08
2018-10-03T15:12:39.168Z,55.44
2018-10-03T15:15:07.736Z,55.80
2018-10-03T15:17:36.085Z,55.84
2018-10-03T15:20:04.555Z,56.59
2018-10-03T15:22:32.876Z,55.70
2018-10-03T15:25:01.245Z,55.75
2018-10-03T15:27:29.867Z,55.44
2018-10-03T15:29:58.356Z,55.60
2018-10-03T15:32:26.595Z,55.17
2018-10-03T15:34:55.241Z,55.72
2018-10-03T15:37:23.602Z,56.24
2018-10-03T15:39:51.971Z,55.96
2018-10-03T15:42:20.345Z,55.19
2018-10-03T15:44:48.718Z,55.85
2018-10-03T15:47:18.680Z,57.00
2018-10-03T15:49:47.127Z,56.72
2018-10-03T15:52:17.524Z,55.82
2018-10-03T15:54:45.959Z,56.62
2018-10-03T15:57:14.522Z,57.20
2018-10-03T15:59:43.018Z,55.73
2018-10-03T16:02:11.478Z,57.21
2018-10-03T16:04:39.849Z,57.09
2018-10-03T16:07:08.187Z,57.53
2018-10-03T16:09:36.597Z,57.43
2018-10-03T16:12:04.903Z,59.00
2018-10-03T16:14:33.412Z,57.53
2018-10-03T16:17:01.845Z,57.55
2018-10-03T16:19:30.363Z,58.82
2018-10-03T16:21:58.711Z,57.96
2018-10-03T16:24:27.267Z,57.73
2018-10-03T16:26:55.652Z,58.16
2018-10-03T16:29:24.190Z,58.38
2018-10-03T16:31:53.077Z,58.12
2018-10-03T16:34:21.833Z,58.82
2018-10-03T16:36:50.446Z,59.25
2018-10-03T16:39:19.004Z,59.32
2018-10-03T16:41:47.447Z,59.71
2018-10-03T16:44:15.852Z,60.19
2018-10-03T16:46:45.028Z,59.95
2018-10-03T16:49:13.579Z,60.13
2018-10-03T16:51:42.163Z,62.21
2018-10-03T16:54:11.247Z,62.35
2018-10-03T16:56:39.972Z,61.23
2018-10-03T16:59:09.146Z,61.34
2018-10-03T17:01:38.114Z,62.24
2018-10-03T17:04:06.468Z,61.87
2018-10-03T17:06:34.829Z,62.72
2018-10-03T17:09:03.467Z,64.35
2018-10-03T17:11:32.852Z,64.54
2018-10-03T17:14:40.439Z,64.31
2018-10-03T17:17:09.576Z,65.61
2018-10-03T17:19:38.199Z,65.93
2018-10-03T17:22:06.890Z,65.37
2018-10-03T17:24:36.494Z,64.17
2018-10-03T17:27:04.897Z,63.71
2018-10-03T17:29:33.236Z,64.67
2018-10-03T17:32:01.691Z,64.95
2018-10-03T17:34:30.014Z,64.89
2018-10-03T17:36:58.630Z,64.33
2018-10-03T17:39:27.715Z,63.85
2018-10-03T17:41:56.182Z,65.43
2018-10-03T17:44:25.685Z,66.33
2018-10-03T17:46:55.405Z,67.46
2018-10-03T17:49:23.745Z,67.52
2018-10-03T17:51:52.190Z,68.88
2018-10-03T17:54:20.763Z,68.97
2018-10-03T17:56:49.505Z,70.29
2018-10-03T17:59:18.406Z,71.50
2018-10-03T18:01:51.230Z,72.32
2018-10-03T18:04:19.800Z,73.46
2018-10-03T18:06:48.245Z,74.20
2018-10-03T18:09:16.987Z,73.39
2018-10-03T18:11:45.424Z,74.01
2018-10-03T18:14:13.834Z,74.67
2018-10-03T18:16:42.211Z,75.64
2018-10-03T18:19:10.586Z,76.07
2018-10-03T18:21:38.926Z,76.18
2018-10-03T18:24:07.365Z,77.23
2018-10-03T18:26:36.024Z,78.28
2018-10-03T18:29:04.515Z,78.27
2018-10-03T18:31:32.981Z,79.05
2018-10-03T18:34:01.202Z,78.46
2018-10-03T18:36:30.242Z,77.95
2018-10-03T18:38:58.535Z,79.31
2018-10-03T18:41:26.863Z,80.15
2018-10-03T18:43:55.168Z,79.78
2018-10-03T18:46:23.535Z,79.37
2018-10-03T18:48:51.963Z,79.98
2018-10-03T18:51:20.291Z,79.69
2018-10-03T18:53:48.961Z,79.53
2018-10-03T18:56:17.324Z,79.57
2018-10-03T18:58:45.646Z,79.18
2018-10-03T19:01:14.047Z,79.74
2018-10-03T19:03:42.632Z,79.62
2018-10-03T19:06:11.190Z,79.20
2018-10-03T19:08:39.515Z,79.52
2018-10-03T19:11:07.889Z,79.91
2018-10-03T19:13:36.331Z,80.91
2018-10-03T19:16:04.875Z,80.25
2018-10-03T19:18:33.467Z,78.82
2018-10-03T19:21:01.753Z,79.16
2018-10-03T19:23:30.110Z,78.80
2018-10-03T19:25:58.447Z,78.98
2018-10-03T19:28:26.883Z,80.04
2018-10-03T19:30:55.404Z,81.31
2018-10-03T19:33:23.750Z,80.67
2018-10-03T19:35:52.117Z,80.92
2018-10-03T19:38:20.465Z,80.91
2018-10-03T19:40:50.131Z,80.86
2018-10-03T19:43:18.920Z,81.47
2018-10-03T19:45:47.493Z,81.54
2018-10-03T19:48:16.243Z,81.45
2018-10-03T19:50:45.011Z,80.91
2018-10-03T19:53:13.412Z,81.07
2018-10-03T19:55:41.745Z,81.01
2018-10-03T19:58:10.042Z,81.31
2018-10-03T20:00:38.371Z,81.13
2018-10-03T20:03:06.838Z,81.10
2018-10-03T20:05:35.224Z,81.02
2018-10-03T20:08:03.584Z,81.20
2018-10-03T20:10:32.003Z,80.67
2018-10-03T20:13:00.311Z,80.48
2018-10-03T20:15:28.739Z,80.74
2018-10-03T20:17:57.042Z,80.53
2018-10-03T20:20:25.540Z,80.94
2018-10-03T20:22:53.924Z,80.99
2018-10-03T20:25:22.372Z,80.92
2018-10-03T20:27:50.707Z,81.80
2018-10-03T20:30:19.107Z,81.57
2018-10-03T20:32:47.659Z,81.53
2018-10-03T20:35:16.041Z,81.77
2018-10-03T20:37:44.696Z,81.50
2018-10-03T20:40:13.081Z,81.60
2018-10-03T20:42:41.526Z,81.16
2018-10-03T20:45:09.859Z,81.68
2018-10-03T20:47:38.214Z,81.37
2018-10-03T20:50:06.644Z,81.46
2018-10-03T20:52:34.963Z,80.55
2018-10-03T20:55:03.314Z,80.70
2018-10-03T20:57:31.667Z,80.44
2018-10-03T21:00:00.012Z,80.36
2018-10-03T21:02:28.559Z,80.78
2018-10-03T21:04:57.075Z,80.73
2018-10-03T21:07:25.434Z,80.99
2018-10-03T21:09:53.811Z,81.11
2018-10-03T21:12:22.372Z,81.31
2018-10-03T21:14:50.707Z,81.55
2018-10-03T21:17:19.316Z,81.83
2018-10-03T21:19:47.713Z,81.80
2018-10-03T21:22:16.058Z,81.54
2018-10-03T21:24:44.503Z,82.28
2018-10-03T21:27:12.994Z,81.76
2018-10-03T21:29:41.311Z,82.16
2018-10-03T21:32:09.623Z,82.17
2018-10-03T21:34:37.938Z,82.26
2018-10-03T21:37:06.316Z,82.20
2018-10-03T21:39:34.648Z,82.60
2018-10-03T21:42:02.997Z,83.04
2018-10-03T21:44:31.291Z,82.82
2018-10-03T21:46:59.616Z,82.76
2018-10-03T21:49:27.969Z,82.29
2018-10-03T21:51:57.662Z,81.98
2018-10-03T21:54:26.001Z,82.60
2018-10-03T21:56:54.327Z,83.46
2018-10-03T21:59:22.686Z,83.15
2018-10-03T22:01:51.009Z,83.33
2018-10-03T22:04:19.346Z,83.26
2018-10-03T22:06:47.658Z,83.12
2018-10-03T22:09:15.974Z,83.93
2018-10-03T22:11:44.343Z,83.43
2018-10-03T22:14:12.690Z,83.69
2018-10-03T22:16:41.055Z,83.62
2018-10-03T22:19:09.447Z,83.68
2018-10-03T22:21:37.819Z,82.78
2018-10-03T22:24:06.151Z,82.64
2018-10-03T22:26:34.471Z,82.51
2018-10-03T22:29:02.863Z,83.31
2018-10-03T22:31:31.175Z,82.81
2018-10-03T22:33:59.491Z,81.81
2018-10-03T22:36:27.899Z,81.56
2018-10-03T22:38:56.215Z,82.10
2018-10-03T22:41:24.580Z,82.64
2018-10-03T22:43:52.887Z,82.60
2018-10-03T22:46:21.283Z,81.57
2018-10-03T22:48:49.563Z,80.47
2018-10-03T22:51:17.880Z,80.23
2018-10-03T22:53:46.214Z,79.95
2018-10-03T22:56:14.598Z,79.78
2018-10-03T22:58:43.035Z,78.97
2018-10-03T23:01:11.405Z,79.21
2018-10-03T23:03:39.741Z,78.62
2018-10-03T23:06:08.097Z,79.89
2018-10-03T23:08:36.963Z,80.42
2018-10-03T23:11:05.312Z,80.17
2018-10-03T23:13:33.663Z,80.75
2018-10-03T23:16:02.028Z,81.42
2018-10-03T23:18:30.439Z,81.57
2018-10-03T23:20:58.741Z,80.58
2018-10-03T23:23:27.095Z,80.79
2018-10-03T23:25:55.390Z,80.66
2018-10-03T23:28:23.716Z,79.94
2018-10-03T23:30:52.416Z,80.39
2018-10-03T23:33:20.749Z,80.84
2018-10-03T23:35:49.065Z,81.27
2018-10-03T23:38:17.411Z,81.09
2018-10-03T23:40:45.771Z,80.89
2018-10-03T23:43:14.316Z,80.90
2018-10-03T23:45:42.675Z,80.97
2018-10-03T23:48:10.999Z,81.06
2018-10-03T23:50:39.334Z,80.60
2018-10-03T23:53:07.663Z,80.73
2018-10-03T23:55:35.967Z,80.24
2018-10-03T23:58:04.339Z,81.24
